Buenopolis, Brazil
Current Conditions -  °F | °C
As of 6:00 PM on Friday 31 Oct 2014 (Local Time) from SBMK Reporting Station
Light Rain Light Rain  
Wind Chill: 73°   Ceiling: Unl
Heat Index: 73°   Visibility: 3mi
Dew Point: 64°   Wind: 13mph
Humidity: 73%   Direction: 30°NNE
Pressure: 29.97"   Gusts: NA
Location:  17.87°S, 44.18°W
Report Text: SBMK 312000Z 03011KT 5000 -RA SCT040 FEW050TCU 23/18 Q1015
Loading
Personal Weather Stations






























Interactive Weather Map
Tropical Storm Tracking
New forecast layout! Learn more

10-Day Weather Forecast

Advertisements
Track Severe Weather on mobile